sensor_id;sensor_type;location;lat;lon;timestamp;temperature;humidity
13223;DHT22;6676;45.192;5.722;2022-09-09T00:07:03;20.00;99.90
13223;DHT22;6676;45.192;5.722;2022-09-09T00:09:57;20.00;99.90
13223;DHT22;6676;45.192;5.722;2022-09-09T00:16:47;20.10;99.90
13223;DHT22;6676;45.192;5.722;2022-09-09T00:22:19;20.10;99.90
13223;DHT22;6676;45.192;5.722;2022-09-09T00:25:14;20.00;99.90
13223;DHT22;6676;45.192;5.722;2022-09-09T00:28:16;19.90;99.90
13223;DHT22;6676;45.192;5.722;2022-09-09T00:31:12;19.80;99.90
13223;DHT22;6676;45.192;5.722;2022-09-09T00:34:09;19.90;99.90
13223;DHT22;6676;45.192;5.722;2022-09-09T00:37:01;19.80;99.90
13223;DHT22;6676;45.192;5.722;2022-09-09T00:39:55;19.80;99.90
13223;DHT22;6676;45.192;5.722;2022-09-09T00:42:49;19.70;99.90
13223;DHT22;6676;45.192;5.722;2022-09-09T00:49:08;19.60;99.90
13223;DHT22;6676;45.192;5.722;2022-09-09T00:52:05;19.40;99.90
13223;DHT22;6676;45.192;5.722;2022-09-09T00:55:01;19.30;99.90
13223;DHT22;6676;45.192;5.722;2022-09-09T00:57:53;19.30;99.90
13223;DHT22;6676;45.192;5.722;2022-09-09T01:00:49;19.30;99.90
13223;DHT22;6676;45.192;5.722;2022-09-09T01:22:47;19.40;99.90
13223;DHT22;6676;45.192;5.722;2022-09-09T01:28:53;19.40;99.90
13223;DHT22;6676;45.192;5.722;2022-09-09T01:31:55;19.50;99.90
13223;DHT22;6676;45.192;5.722;2022-09-09T01:34:47;19.50;99.90
13223;DHT22;6676;45.192;5.722;2022-09-09T01:37:40;19.40;99.90
13223;DHT22;6676;45.192;5.722;2022-09-09T01:40:32;19.30;99.90
13223;DHT22;6676;45.192;5.722;2022-09-09T01:43:26;19.30;99.90
13223;DHT22;6676;45.192;5.722;2022-09-09T01:46:18;19.30;99.90
13223;DHT22;6676;45.192;5.722;2022-09-09T01:57:20;19.20;99.90
13223;DHT22;6676;45.192;5.722;2022-09-09T02:00:13;19.10;99.90
13223;DHT22;6676;45.192;5.722;2022-09-09T02:05:51;19.00;99.90
13223;DHT22;6676;45.192;5.722;2022-09-09T02:11:30;18.90;99.90
13223;DHT22;6676;45.192;5.722;2022-09-09T02:14:26;18.80;99.90
13223;DHT22;6676;45.192;5.722;2022-09-09T02:17:21;18.80;99.90
13223;DHT22;6676;45.192;5.722;2022-09-09T02:20:15;18.80;99.90
13223;DHT22;6676;45.192;5.722;2022-09-09T02:23:09;18.70;99.90
13223;DHT22;6676;45.192;5.722;2022-09-09T02:26:03;18.80;99.90
13223;DHT22;6676;45.192;5.722;2022-09-09T02:28:56;18.80;99.90
13223;DHT22;6676;45.192;5.722;2022-09-09T02:31:50;18.80;99.90
13223;DHT22;6676;45.192;5.722;2022-09-09T02:38:57;18.80;99.90
13223;DHT22;6676;45.192;5.722;2022-09-09T02:41:50;18.70;99.90
13223;DHT22;6676;45.192;5.722;2022-09-09T02:44:43;18.70;99.90
13223;DHT22;6676;45.192;5.722;2022-09-09T02:47:38;18.70;99.90
13223;DHT22;6676;45.192;5.722;2022-09-09T02:50:34;18.60;99.90
13223;DHT22;6676;45.192;5.722;2022-09-09T02:53:30;18.60;99.90
13223;DHT22;6676;45.192;5.722;2022-09-09T02:56:25;18.60;99.90
13223;DHT22;6676;45.192;5.722;2022-09-09T02:59:19;18.50;99.90
13223;DHT22;6676;45.192;5.722;2022-09-09T03:02:11;18.50;99.90
13223;DHT22;6676;45.192;5.722;2022-09-09T03:05:05;18.50;99.90
13223;DHT22;6676;45.192;5.722;2022-09-09T03:07:57;18.40;99.90
13223;DHT22;6676;45.192;5.722;2022-09-09T03:10:48;18.30;99.90
13223;DHT22;6676;45.192;5.722;2022-09-09T03:13:39;18.20;99.90
13223;DHT22;6676;45.192;5.722;2022-09-09T03:16:31;18.10;99.90
13223;DHT22;6676;45.192;5.722;2022-09-09T03:19:24;18.00;99.90
13223;DHT22;6676;45.192;5.722;2022-09-09T03:22:16;18.00;99.90
13223;DHT22;6676;45.192;5.722;2022-09-09T03:25:08;17.90;99.90
13223;DHT22;6676;45.192;5.722;2022-09-09T03:28:00;17.80;99.90
13223;DHT22;6676;45.192;5.722;2022-09-09T03:30:51;17.70;99.90
13223;DHT22;6676;45.192;5.722;2022-09-09T03:36:22;17.60;99.90
13223;DHT22;6676;45.192;5.722;2022-09-09T03:39:14;17.60;99.90
13223;DHT22;6676;45.192;5.722;2022-09-09T03:42:06;17.60;99.90
13223;DHT22;6676;45.192;5.722;2022-09-09T03:44:58;17.50;99.90
13223;DHT22;6676;45.192;5.722;2022-09-09T03:47:50;17.50;99.90
13223;DHT22;6676;45.192;5.722;2022-09-09T03:50:45;17.40;99.90
13223;DHT22;6676;45.192;5.722;2022-09-09T03:53:37;17.40;99.90
13223;DHT22;6676;45.192;5.722;2022-09-09T03:56:29;17.50;99.90
13223;DHT22;6676;45.192;5.722;2022-09-09T03:59:21;17.50;99.90
13223;DHT22;6676;45.192;5.722;2022-09-09T04:02:13;17.60;99.90
13223;DHT22;6676;45.192;5.722;2022-09-09T04:05:07;17.60;99.90
13223;DHT22;6676;45.192;5.722;2022-09-09T04:08:00;17.70;99.90
13223;DHT22;6676;45.192;5.722;2022-09-09T04:10:53;17.70;99.90
13223;DHT22;6676;45.192;5.722;2022-09-09T04:16:38;17.70;99.90
13223;DHT22;6676;45.192;5.722;2022-09-09T04:19:31;17.80;99.90
13223;DHT22;6676;45.192;5.722;2022-09-09T04:22:23;17.80;99.90
13223;DHT22;6676;45.192;5.722;2022-09-09T04:28:35;17.80;99.90
13223;DHT22;6676;45.192;5.722;2022-09-09T04:31:29;17.80;99.90
13223;DHT22;6676;45.192;5.722;2022-09-09T04:34:20;17.80;99.90
13223;DHT22;6676;45.192;5.722;2022-09-09T04:37:11;17.80;99.90
13223;DHT22;6676;45.192;5.722;2022-09-09T04:40:07;17.70;99.90
13223;DHT22;6676;45.192;5.722;2022-09-09T04:45:43;17.50;99.90
13223;DHT22;6676;45.192;5.722;2022-09-09T04:48:34;17.40;99.90
13223;DHT22;6676;45.192;5.722;2022-09-09T04:51:27;17.30;99.90
13223;DHT22;6676;45.192;5.722;2022-09-09T04:56:59;17.50;99.90
13223;DHT22;6676;45.192;5.722;2022-09-09T04:59:53;17.40;99.90
13223;DHT22;6676;45.192;5.722;2022-09-09T05:02:46;17.30;99.90
13223;DHT22;6676;45.192;5.722;2022-09-09T05:05:46;17.30;99.90
13223;DHT22;6676;45.192;5.722;2022-09-09T05:08:42;17.20;99.90
13223;DHT22;6676;45.192;5.722;2022-09-09T05:11:47;17.20;99.90
13223;DHT22;6676;45.192;5.722;2022-09-09T05:17:20;17.30;99.90
13223;DHT22;6676;45.192;5.722;2022-09-09T05:22:53;17.30;99.90
13223;DHT22;6676;45.192;5.722;2022-09-09T05:25:54;17.30;99.90
13223;DHT22;6676;45.192;5.722;2022-09-09T05:31:38;17.30;99.90
13223;DHT22;6676;45.192;5.722;2022-09-09T05:37:09;17.40;99.90
13223;DHT22;6676;45.192;5.722;2022-09-09T05:40:01;17.40;99.90
13223;DHT22;6676;45.192;5.722;2022-09-09T05:42:52;17.40;99.90
13223;DHT22;6676;45.192;5.722;2022-09-09T05:48:24;17.30;99.90
13223;DHT22;6676;45.192;5.722;2022-09-09T05:51:19;17.30;99.90
13223;DHT22;6676;45.192;5.722;2022-09-09T05:54:11;17.30;99.90
13223;DHT22;6676;45.192;5.722;2022-09-09T05:57:06;17.30;99.90
13223;DHT22;6676;45.192;5.722;2022-09-09T05:59:57;17.30;99.90
13223;DHT22;6676;45.192;5.722;2022-09-09T06:02:52;17.20;99.90
13223;DHT22;6676;45.192;5.722;2022-09-09T06:08:29;17.10;99.90
13223;DHT22;6676;45.192;5.722;2022-09-09T06:11:25;17.10;99.90
13223;DHT22;6676;45.192;5.722;2022-09-09T06:14:16;17.10;99.90
13223;DHT22;6676;45.192;5.722;2022-09-09T06:17:09;17.10;99.90
13223;DHT22;6676;45.192;5.722;2022-09-09T06:20:00;17.00;99.90
13223;DHT22;6676;45.192;5.722;2022-09-09T06:22:52;17.00;99.90
13223;DHT22;6676;45.192;5.722;2022-09-09T06:25:45;17.00;99.90
13223;DHT22;6676;45.192;5.722;2022-09-09T06:44:30;17.20;99.90
13223;DHT22;6676;45.192;5.722;2022-09-09T06:47:29;17.10;99.90
13223;DHT22;6676;45.192;5.722;2022-09-09T06:50:27;17.10;99.90
13223;DHT22;6676;45.192;5.722;2022-09-09T06:53:19;17.10;99.90
13223;DHT22;6676;45.192;5.722;2022-09-09T06:56:23;17.20;99.90
13223;DHT22;6676;45.192;5.722;2022-09-09T07:01:55;17.40;99.90
13223;DHT22;6676;45.192;5.722;2022-09-09T07:04:55;17.30;99.90
13223;DHT22;6676;45.192;5.722;2022-09-09T07:07:49;17.40;99.90
13223;DHT22;6676;45.192;5.722;2022-09-09T07:10:42;17.40;99.90
13223;DHT22;6676;45.192;5.722;2022-09-09T07:13:35;17.50;99.90
13223;DHT22;6676;45.192;5.722;2022-09-09T07:16:28;17.40;99.90
13223;DHT22;6676;45.192;5.722;2022-09-09T07:19:23;17.40;99.90
13223;DHT22;6676;45.192;5.722;2022-09-09T07:22:18;17.50;99.90
13223;DHT22;6676;45.192;5.722;2022-09-09T07:25:15;17.60;99.90
13223;DHT22;6676;45.192;5.722;2022-09-09T07:28:08;17.70;99.90
13223;DHT22;6676;45.192;5.722;2022-09-09T07:31:14;17.70;99.90
13223;DHT22;6676;45.192;5.722;2022-09-09T07:36:51;17.80;99.90
13223;DHT22;6676;45.192;5.722;2022-09-09T07:39:44;17.90;99.90
13223;DHT22;6676;45.192;5.722;2022-09-09T07:42:38;17.90;99.90
13223;DHT22;6676;45.192;5.722;2022-09-09T07:45:34;17.90;99.90
13223;DHT22;6676;45.192;5.722;2022-09-09T07:48:25;18.00;99.90
13223;DHT22;6676;45.192;5.722;2022-09-09T07:51:18;18.10;99.90
13223;DHT22;6676;45.192;5.722;2022-09-09T07:54:13;18.20;99.90
13223;DHT22;6676;45.192;5.722;2022-09-09T07:57:10;18.20;99.90
13223;DHT22;6676;45.192;5.722;2022-09-09T08:00:15;18.40;99.90
13223;DHT22;6676;45.192;5.722;2022-09-09T08:03:09;18.40;99.90
13223;DHT22;6676;45.192;5.722;2022-09-09T08:06:12;18.50;99.90
13223;DHT22;6676;45.192;5.722;2022-09-09T08:09:06;18.60;99.90
13223;DHT22;6676;45.192;5.722;2022-09-09T08:12:00;18.80;99.90
13223;DHT22;6676;45.192;5.722;2022-09-09T08:14:53;18.90;99.90
13223;DHT22;6676;45.192;5.722;2022-09-09T08:17:47;19.00;99.90
13223;DHT22;6676;45.192;5.722;2022-09-09T08:20:38;19.10;99.90
13223;DHT22;6676;45.192;5.722;2022-09-09T08:23:57;19.20;99.90
13223;DHT22;6676;45.192;5.722;2022-09-09T08:27:05;19.40;99.90
13223;DHT22;6676;45.192;5.722;2022-09-09T08:29:57;19.50;99.90
13223;DHT22;6676;45.192;5.722;2022-09-09T08:32:50;19.50;99.90
13223;DHT22;6676;45.192;5.722;2022-09-09T08:35:51;19.50;99.90
13223;DHT22;6676;45.192;5.722;2022-09-09T08:38:53;19.50;99.90
13223;DHT22;6676;45.192;5.722;2022-09-09T08:42:25;19.60;99.90
13223;DHT22;6676;45.192;5.722;2022-09-09T08:48:39;19.80;99.90
13223;DHT22;6676;45.192;5.722;2022-09-09T08:51:39;19.80;99.90
13223;DHT22;6676;45.192;5.722;2022-09-09T08:54:34;19.90;99.90
13223;DHT22;6676;45.192;5.722;2022-09-09T08:57:29;20.00;99.90
13223;DHT22;6676;45.192;5.722;2022-09-09T09:00:21;20.20;99.90
13223;DHT22;6676;45.192;5.722;2022-09-09T09:03:22;20.40;99.90
13223;DHT22;6676;45.192;5.722;2022-09-09T09:06:30;20.60;99.90
13223;DHT22;6676;45.192;5.722;2022-09-09T09:09:25;20.80;99.90
13223;DHT22;6676;45.192;5.722;2022-09-09T09:12:20;21.00;99.90
13223;DHT22;6676;45.192;5.722;2022-09-09T09:15:21;21.10;99.90
13223;DHT22;6676;45.192;5.722;2022-09-09T09:18:22;21.30;99.90
13223;DHT22;6676;45.192;5.722;2022-09-09T09:21:17;21.50;99.90
13223;DHT22;6676;45.192;5.722;2022-09-09T09:24:18;21.60;99.90
13223;DHT22;6676;45.192;5.722;2022-09-09T09:27:15;21.70;99.90
13223;DHT22;6676;45.192;5.722;2022-09-09T09:30:20;21.80;99.90
13223;DHT22;6676;45.192;5.722;2022-09-09T09:33:18;21.80;99.90
13223;DHT22;6676;45.192;5.722;2022-09-09T09:38:56;22.10;99.90
13223;DHT22;6676;45.192;5.722;2022-09-09T09:41:54;22.00;99.90
13223;DHT22;6676;45.192;5.722;2022-09-09T09:44:54;22.10;99.90
13223;DHT22;6676;45.192;5.722;2022-09-09T09:47:58;22.10;99.90
13223;DHT22;6676;45.192;5.722;2022-09-09T09:50:56;22.10;99.90
13223;DHT22;6676;45.192;5.722;2022-09-09T09:56:30;22.20;99.90
13223;DHT22;6676;45.192;5.722;2022-09-09T09:59:35;22.30;99.90
13223;DHT22;6676;45.192;5.722;2022-09-09T10:02:40;22.30;99.90
13223;DHT22;6676;45.192;5.722;2022-09-09T10:05:38;22.40;99.90
13223;DHT22;6676;45.192;5.722;2022-09-09T10:08:46;22.50;99.90
13223;DHT22;6676;45.192;5.722;2022-09-09T10:11:48;22.50;99.90
13223;DHT22;6676;45.192;5.722;2022-09-09T10:14:43;22.60;99.90
13223;DHT22;6676;45.192;5.722;2022-09-09T10:20:34;22.70;99.90
13223;DHT22;6676;45.192;5.722;2022-09-09T10:26:37;22.80;99.90
13223;DHT22;6676;45.192;5.722;2022-09-09T10:32:42;22.90;99.90
13223;DHT22;6676;45.192;5.722;2022-09-09T10:35:38;22.90;99.90
13223;DHT22;6676;45.192;5.722;2022-09-09T10:38:32;23.00;99.90
13223;DHT22;6676;45.192;5.722;2022-09-09T10:41:34;23.00;99.90
13223;DHT22;6676;45.192;5.722;2022-09-09T10:44:32;23.10;99.90
13223;DHT22;6676;45.192;5.722;2022-09-09T10:47:59;23.10;99.90
13223;DHT22;6676;45.192;5.722;2022-09-09T10:56:31;23.00;99.90
13223;DHT22;6676;45.192;5.722;2022-09-09T10:59:28;23.00;99.90
13223;DHT22;6676;45.192;5.722;2022-09-09T11:02:25;23.00;99.90
13223;DHT22;6676;45.192;5.722;2022-09-09T11:08:01;23.00;99.90
13223;DHT22;6676;45.192;5.722;2022-09-09T11:10:58;23.00;99.90
13223;DHT22;6676;45.192;5.722;2022-09-09T11:13:53;23.10;99.90
13223;DHT22;6676;45.192;5.722;2022-09-09T11:16:49;23.20;99.90
13223;DHT22;6676;45.192;5.722;2022-09-09T11:19:53;23.20;99.90
13223;DHT22;6676;45.192;5.722;2022-09-09T11:22:55;23.30;99.90
13223;DHT22;6676;45.192;5.722;2022-09-09T11:25:50;23.40;99.90
13223;DHT22;6676;45.192;5.722;2022-09-09T11:28:50;23.50;99.90
13223;DHT22;6676;45.192;5.722;2022-09-09T11:31:50;23.50;99.90
13223;DHT22;6676;45.192;5.722;2022-09-09T11:34:47;23.50;99.90
13223;DHT22;6676;45.192;5.722;2022-09-09T11:38:02;23.60;99.90
13223;DHT22;6676;45.192;5.722;2022-09-09T11:41:04;23.70;99.90
13223;DHT22;6676;45.192;5.722;2022-09-09T11:44:16;23.60;99.90
13223;DHT22;6676;45.192;5.722;2022-09-09T11:47:23;23.50;99.90
13223;DHT22;6676;45.192;5.722;2022-09-09T11:50:33;23.60;99.90
13223;DHT22;6676;45.192;5.722;2022-09-09T11:53:26;23.70;99.90
13223;DHT22;6676;45.192;5.722;2022-09-09T11:56:29;23.90;99.90
13223;DHT22;6676;45.192;5.722;2022-09-09T11:59:23;23.70;99.90
13223;DHT22;6676;45.192;5.722;2022-09-09T12:02:17;23.70;99.90
13223;DHT22;6676;45.192;5.722;2022-09-09T12:05:11;23.90;99.90
13223;DHT22;6676;45.192;5.722;2022-09-09T12:08:05;23.90;99.90
13223;DHT22;6676;45.192;5.722;2022-09-09T12:11:03;23.90;99.90
13223;DHT22;6676;45.192;5.722;2022-09-09T12:13:59;24.00;99.90
13223;DHT22;6676;45.192;5.722;2022-09-09T12:16:50;24.10;99.90
13223;DHT22;6676;45.192;5.722;2022-09-09T12:22:25;23.90;99.90
13223;DHT22;6676;45.192;5.722;2022-09-09T12:25:26;24.00;99.90
13223;DHT22;6676;45.192;5.722;2022-09-09T12:28:20;24.20;99.90
13223;DHT22;6676;45.192;5.722;2022-09-09T12:31:21;24.30;99.90
13223;DHT22;6676;45.192;5.722;2022-09-09T12:34:25;24.40;99.90
13223;DHT22;6676;45.192;5.722;2022-09-09T12:37:21;24.50;99.90
13223;DHT22;6676;45.192;5.722;2022-09-09T12:40:22;24.50;99.90
13223;DHT22;6676;45.192;5.722;2022-09-09T12:43:19;24.50;99.40
13223;DHT22;6676;45.192;5.722;2022-09-09T12:46:17;24.60;98.20
13223;DHT22;6676;45.192;5.722;2022-09-09T12:49:26;24.60;98.40
13223;DHT22;6676;45.192;5.722;2022-09-09T12:52:31;24.80;98.60
13223;DHT22;6676;45.192;5.722;2022-09-09T12:55:27;24.90;97.80
13223;DHT22;6676;45.192;5.722;2022-09-09T12:58:20;25.00;98.20
13223;DHT22;6676;45.192;5.722;2022-09-09T13:01:22;25.10;97.60
13223;DHT22;6676;45.192;5.722;2022-09-09T13:04:21;25.10;95.90
13223;DHT22;6676;45.192;5.722;2022-09-09T13:07:13;25.10;94.90
13223;DHT22;6676;45.192;5.722;2022-09-09T13:10:10;25.10;93.90
13223;DHT22;6676;45.192;5.722;2022-09-09T13:13:04;25.10;94.10
13223;DHT22;6676;45.192;5.722;2022-09-09T13:16:05;25.10;93.90
13223;DHT22;6676;45.192;5.722;2022-09-09T13:19:01;25.00;93.50
13223;DHT22;6676;45.192;5.722;2022-09-09T13:22:13;24.90;93.30
13223;DHT22;6676;45.192;5.722;2022-09-09T13:25:25;25.00;93.70
13223;DHT22;6676;45.192;5.722;2022-09-09T13:28:23;25.00;92.70
13223;DHT22;6676;45.192;5.722;2022-09-09T13:31:28;25.10;92.60
13223;DHT22;6676;45.192;5.722;2022-09-09T13:34:27;25.30;91.50
13223;DHT22;6676;45.192;5.722;2022-09-09T13:37:22;25.40;92.10
13223;DHT22;6676;45.192;5.722;2022-09-09T13:40:19;25.50;92.10
13223;DHT22;6676;45.192;5.722;2022-09-09T13:43:15;25.50;91.90
13223;DHT22;6676;45.192;5.722;2022-09-09T13:46:32;25.30;91.20
13223;DHT22;6676;45.192;5.722;2022-09-09T13:49:22;25.40;91.10
13223;DHT22;6676;45.192;5.722;2022-09-09T13:52:19;25.50;90.30
13223;DHT22;6676;45.192;5.722;2022-09-09T13:55:12;25.50;90.00
13223;DHT22;6676;45.192;5.722;2022-09-09T13:58:14;25.60;89.30
13223;DHT22;6676;45.192;5.722;2022-09-09T14:01:07;25.80;89.10
13223;DHT22;6676;45.192;5.722;2022-09-09T14:04:04;25.90;86.80
13223;DHT22;6676;45.192;5.722;2022-09-09T14:07:00;25.90;86.40
13223;DHT22;6676;45.192;5.722;2022-09-09T14:09:53;26.40;86.10
13223;DHT22;6676;45.192;5.722;2022-09-09T14:13:00;27.30;81.60
13223;DHT22;6676;45.192;5.722;2022-09-09T14:15:51;27.80;80.10
13223;DHT22;6676;45.192;5.722;2022-09-09T14:18:43;28.20;76.50
13223;DHT22;6676;45.192;5.722;2022-09-09T14:21:40;28.60;75.50
13223;DHT22;6676;45.192;5.722;2022-09-09T14:24:33;28.80;71.80
13223;DHT22;6676;45.192;5.722;2022-09-09T14:27:25;29.00;67.70
13223;DHT22;6676;45.192;5.722;2022-09-09T14:30:17;28.30;67.90
13223;DHT22;6676;45.192;5.722;2022-09-09T14:33:23;28.60;68.60
13223;DHT22;6676;45.192;5.722;2022-09-09T14:36:18;29.00;67.20
13223;DHT22;6676;45.192;5.722;2022-09-09T14:39:10;30.00;65.30
13223;DHT22;6676;45.192;5.722;2022-09-09T14:42:01;30.20;62.30
13223;DHT22;6676;45.192;5.722;2022-09-09T14:44:53;30.80;60.20
13223;DHT22;6676;45.192;5.722;2022-09-09T14:47:46;31.10;57.80
13223;DHT22;6676;45.192;5.722;2022-09-09T14:50:38;31.00;56.50
13223;DHT22;6676;45.192;5.722;2022-09-09T14:53:32;31.30;54.60
13223;DHT22;6676;45.192;5.722;2022-09-09T14:56:32;30.90;54.60
13223;DHT22;6676;45.192;5.722;2022-09-09T15:02:05;30.70;53.10
13223;DHT22;6676;45.192;5.722;2022-09-09T15:04:58;29.30;54.50
13223;DHT22;6676;45.192;5.722;2022-09-09T15:07:49;28.70;55.20
13223;DHT22;6676;45.192;5.722;2022-09-09T15:10:41;29.00;54.50
13223;DHT22;6676;45.192;5.722;2022-09-09T15:16:18;29.30;55.20
13223;DHT22;6676;45.192;5.722;2022-09-09T15:19:12;27.70;56.40
13223;DHT22;6676;45.192;5.722;2022-09-09T15:22:04;28.50;56.50
13223;DHT22;6676;45.192;5.722;2022-09-09T15:24:57;29.40;56.10
13223;DHT22;6676;45.192;5.722;2022-09-09T15:27:48;30.30;53.60
13223;DHT22;6676;45.192;5.722;2022-09-09T15:30:40;30.60;53.00
13223;DHT22;6676;45.192;5.722;2022-09-09T15:33:31;30.90;52.10
13223;DHT22;6676;45.192;5.722;2022-09-09T15:36:24;31.30;52.50
13223;DHT22;6676;45.192;5.722;2022-09-09T15:39:18;32.30;51.10
13223;DHT22;6676;45.192;5.722;2022-09-09T15:42:09;32.20;51.30
13223;DHT22;6676;45.192;5.722;2022-09-09T15:45:01;32.60;50.80
13223;DHT22;6676;45.192;5.722;2022-09-09T15:47:53;32.90;50.20
13223;DHT22;6676;45.192;5.722;2022-09-09T15:50:45;32.60;49.30
13223;DHT22;6676;45.192;5.722;2022-09-09T15:53:36;33.30;49.00
13223;DHT22;6676;45.192;5.722;2022-09-09T15:56:30;34.00;48.30
13223;DHT22;6676;45.192;5.722;2022-09-09T15:59:22;33.70;47.40
13223;DHT22;6676;45.192;5.722;2022-09-09T16:02:13;33.30;47.90
13223;DHT22;6676;45.192;5.722;2022-09-09T16:05:06;33.30;48.20
13223;DHT22;6676;45.192;5.722;2022-09-09T16:07:58;33.70;48.70
13223;DHT22;6676;45.192;5.722;2022-09-09T16:10:49;33.60;48.30
13223;DHT22;6676;45.192;5.722;2022-09-09T16:13:41;33.10;48.80
13223;DHT22;6676;45.192;5.722;2022-09-09T16:16:36;32.60;48.40
13223;DHT22;6676;45.192;5.722;2022-09-09T16:19:28;31.50;49.80
13223;DHT22;6676;45.192;5.722;2022-09-09T16:22:19;31.30;50.30
13223;DHT22;6676;45.192;5.722;2022-09-09T16:25:13;29.80;51.80
13223;DHT22;6676;45.192;5.722;2022-09-09T16:28:05;28.30;54.10
13223;DHT22;6676;45.192;5.722;2022-09-09T16:30:57;27.40;55.20
13223;DHT22;6676;45.192;5.722;2022-09-09T16:33:49;27.30;55.80
13223;DHT22;6676;45.192;5.722;2022-09-09T16:36:42;26.90;57.40
13223;DHT22;6676;45.192;5.722;2022-09-09T16:39:35;26.60;57.40
13223;DHT22;6676;45.192;5.722;2022-09-09T16:42:29;26.50;58.20
13223;DHT22;6676;45.192;5.722;2022-09-09T16:45:22;26.30;58.90
13223;DHT22;6676;45.192;5.722;2022-09-09T16:48:14;26.20;59.90
13223;DHT22;6676;45.192;5.722;2022-09-09T16:51:09;26.30;60.70
13223;DHT22;6676;45.192;5.722;2022-09-09T16:54:02;26.50;60.90
13223;DHT22;6676;45.192;5.722;2022-09-09T16:56:54;26.30;62.00
13223;DHT22;6676;45.192;5.722;2022-09-09T16:59:46;26.70;62.20
13223;DHT22;6676;45.192;5.722;2022-09-09T17:02:38;26.30;62.10
13223;DHT22;6676;45.192;5.722;2022-09-09T17:05:29;26.10;62.70
13223;DHT22;6676;45.192;5.722;2022-09-09T17:08:22;25.80;63.90
13223;DHT22;6676;45.192;5.722;2022-09-09T17:11:15;25.70;64.60
13223;DHT22;6676;45.192;5.722;2022-09-09T17:14:09;25.40;65.10
13223;DHT22;6676;45.192;5.722;2022-09-09T17:17:02;25.30;65.10
13223;DHT22;6676;45.192;5.722;2022-09-09T17:19:55;25.10;65.80
13223;DHT22;6676;45.192;5.722;2022-09-09T17:22:47;24.90;66.60
13223;DHT22;6676;45.192;5.722;2022-09-09T17:25:40;24.80;67.10
13223;DHT22;6676;45.192;5.722;2022-09-09T17:28:31;24.60;67.30
13223;DHT22;6676;45.192;5.722;2022-09-09T17:31:23;24.50;68.00
13223;DHT22;6676;45.192;5.722;2022-09-09T17:34:16;24.40;68.70
13223;DHT22;6676;45.192;5.722;2022-09-09T17:37:08;24.30;69.50
13223;DHT22;6676;45.192;5.722;2022-09-09T17:39:59;24.10;69.50
13223;DHT22;6676;45.192;5.722;2022-09-09T17:42:50;24.00;69.90
13223;DHT22;6676;45.192;5.722;2022-09-09T17:45:42;23.90;70.60
13223;DHT22;6676;45.192;5.722;2022-09-09T17:48:35;23.90;71.00
13223;DHT22;6676;45.192;5.722;2022-09-09T17:51:29;23.80;71.90
13223;DHT22;6676;45.192;5.722;2022-09-09T17:54:21;23.60;72.40
13223;DHT22;6676;45.192;5.722;2022-09-09T17:57:12;23.50;72.90
13223;DHT22;6676;45.192;5.722;2022-09-09T18:00:07;23.50;74.50
13223;DHT22;6676;45.192;5.722;2022-09-09T18:03:01;23.40;75.90
13223;DHT22;6676;45.192;5.722;2022-09-09T18:05:52;23.30;76.20
13223;DHT22;6676;45.192;5.722;2022-09-09T18:08:49;23.10;76.40
13223;DHT22;6676;45.192;5.722;2022-09-09T18:11:44;23.00;76.90
13223;DHT22;6676;45.192;5.722;2022-09-09T18:14:36;23.00;77.80
13223;DHT22;6676;45.192;5.722;2022-09-09T18:17:33;22.90;78.20
13223;DHT22;6676;45.192;5.722;2022-09-09T18:20:26;22.90;77.90
13223;DHT22;6676;45.192;5.722;2022-09-09T18:23:17;22.80;79.10
13223;DHT22;6676;45.192;5.722;2022-09-09T18:26:11;22.60;80.60
13223;DHT22;6676;45.192;5.722;2022-09-09T18:29:04;22.70;80.40
13223;DHT22;6676;45.192;5.722;2022-09-09T18:31:57;22.70;80.00
13223;DHT22;6676;45.192;5.722;2022-09-09T18:34:48;22.70;79.90
13223;DHT22;6676;45.192;5.722;2022-09-09T18:37:41;22.70;79.00
13223;DHT22;6676;45.192;5.722;2022-09-09T18:40:33;22.70;79.30
13223;DHT22;6676;45.192;5.722;2022-09-09T18:43:24;22.60;79.50
13223;DHT22;6676;45.192;5.722;2022-09-09T18:46:17;22.80;78.90
13223;DHT22;6676;45.192;5.722;2022-09-09T18:49:08;22.80;79.00
13223;DHT22;6676;45.192;5.722;2022-09-09T18:52:01;22.80;79.10
13223;DHT22;6676;45.192;5.722;2022-09-09T18:54:53;22.70;79.40
13223;DHT22;6676;45.192;5.722;2022-09-09T18:57:44;22.70;79.50
13223;DHT22;6676;45.192;5.722;2022-09-09T19:00:37;22.70;79.80
13223;DHT22;6676;45.192;5.722;2022-09-09T19:03:30;22.60;80.00
13223;DHT22;6676;45.192;5.722;2022-09-09T19:06:24;22.60;79.80
13223;DHT22;6676;45.192;5.722;2022-09-09T19:09:17;22.70;80.00
13223;DHT22;6676;45.192;5.722;2022-09-09T19:12:10;22.60;80.50
13223;DHT22;6676;45.192;5.722;2022-09-09T19:15:05;22.50;80.90
13223;DHT22;6676;45.192;5.722;2022-09-09T19:17:56;22.40;81.40
13223;DHT22;6676;45.192;5.722;2022-09-09T19:20:49;22.40;81.90
13223;DHT22;6676;45.192;5.722;2022-09-09T19:23:41;22.30;82.30
13223;DHT22;6676;45.192;5.722;2022-09-09T19:26:34;22.30;83.30
13223;DHT22;6676;45.192;5.722;2022-09-09T19:29:29;22.40;83.90
13223;DHT22;6676;45.192;5.722;2022-09-09T19:32:25;22.40;84.70
13223;DHT22;6676;45.192;5.722;2022-09-09T19:35:21;22.20;85.60
13223;DHT22;6676;45.192;5.722;2022-09-09T19:38:22;22.20;86.40
13223;DHT22;6676;45.192;5.722;2022-09-09T19:41:16;22.20;86.90
13223;DHT22;6676;45.192;5.722;2022-09-09T19:44:11;22.10;87.50
13223;DHT22;6676;45.192;5.722;2022-09-09T19:47:04;22.20;88.40
13223;DHT22;6676;45.192;5.722;2022-09-09T19:49:56;22.20;88.70
13223;DHT22;6676;45.192;5.722;2022-09-09T19:52:48;22.20;89.10
13223;DHT22;6676;45.192;5.722;2022-09-09T19:55:42;22.20;89.20
13223;DHT22;6676;45.192;5.722;2022-09-09T19:58:36;22.20;89.10
13223;DHT22;6676;45.192;5.722;2022-09-09T20:01:30;22.20;89.30
13223;DHT22;6676;45.192;5.722;2022-09-09T20:04:24;22.20;89.40
13223;DHT22;6676;45.192;5.722;2022-09-09T20:07:16;22.20;89.80
13223;DHT22;6676;45.192;5.722;2022-09-09T20:12:50;22.10;90.70
13223;DHT22;6676;45.192;5.722;2022-09-09T20:15:45;21.90;91.40
13223;DHT22;6676;45.192;5.722;2022-09-09T20:18:38;21.90;92.00
13223;DHT22;6676;45.192;5.722;2022-09-09T20:21:32;21.90;93.00
13223;DHT22;6676;45.192;5.722;2022-09-09T20:24:26;21.80;92.70
13223;DHT22;6676;45.192;5.722;2022-09-09T20:27:17;21.90;93.40
13223;DHT22;6676;45.192;5.722;2022-09-09T20:30:11;21.70;94.00
13223;DHT22;6676;45.192;5.722;2022-09-09T20:33:11;21.60;95.80
13223;DHT22;6676;45.192;5.722;2022-09-09T20:36:10;21.30;97.50
13223;DHT22;6676;45.192;5.722;2022-09-09T20:39:05;21.10;99.60
13223;DHT22;6676;45.192;5.722;2022-09-09T20:41:57;21.10;99.90
13223;DHT22;6676;45.192;5.722;2022-09-09T20:44:48;20.90;99.90
13223;DHT22;6676;45.192;5.722;2022-09-09T20:47:40;20.90;99.90
13223;DHT22;6676;45.192;5.722;2022-09-09T20:50:34;20.80;99.90
13223;DHT22;6676;45.192;5.722;2022-09-09T20:53:27;20.60;99.90
13223;DHT22;6676;45.192;5.722;2022-09-09T20:56:18;20.70;99.90
13223;DHT22;6676;45.192;5.722;2022-09-09T21:01:55;20.60;99.90
13223;DHT22;6676;45.192;5.722;2022-09-09T21:04:47;20.70;99.90
13223;DHT22;6676;45.192;5.722;2022-09-09T21:07:39;20.70;99.90
13223;DHT22;6676;45.192;5.722;2022-09-09T21:10:31;20.70;99.90